createdAt,value
2022-08-26T00:01:14.149Z,6.15
2022-08-26T00:11:26.616Z,5.80
2022-08-26T00:21:31.220Z,6.45
2022-08-26T00:31:34.300Z,6.43
2022-08-26T00:41:41.467Z,5.93
2022-08-26T00:51:48.640Z,7.85
2022-08-26T01:01:52.767Z,6.63
2022-08-26T01:11:58.149Z,6.28
2022-08-26T01:22:06.839Z,7.05
2022-08-26T01:32:15.242Z,7.93
2022-08-26T01:42:20.037Z,7.93
2022-08-26T01:52:28.268Z,7.50
2022-08-26T02:02:31.260Z,8.02
2022-08-26T02:12:35.607Z,7.15
2022-08-26T02:22:40.376Z,7.70
2022-08-26T02:32:45.054Z,7.45
2022-08-26T02:42:47.840Z,7.63
2022-08-26T02:52:52.505Z,7.95
2022-08-26T03:02:55.598Z,7.75
2022-08-26T03:13:00.528Z,7.20
2022-08-26T03:23:08.123Z,8.35
2022-08-26T03:33:14.334Z,8.40
2022-08-26T03:43:17.897Z,9.60
2022-08-26T03:53:23.790Z,9.48
2022-08-26T04:03:41.757Z,9.25
2022-08-26T04:13:45.876Z,10.70
2022-08-26T04:23:48.721Z,11.23
2022-08-26T04:33:52.758Z,15.10
2022-08-26T04:43:57.036Z,15.93
2022-08-26T04:54:01.703Z,17.15
2022-08-26T05:04:06.022Z,17.13
2022-08-26T05:14:12.524Z,19.17
2022-08-26T05:24:15.765Z,22.05
2022-08-26T05:34:20.865Z,23.23
2022-08-26T05:44:23.868Z,23.73
2022-08-26T05:54:27.916Z,21.65
2022-08-26T06:04:31.287Z,19.15
2022-08-26T06:14:36.024Z,18.48
2022-08-26T06:24:56.224Z,18.20
2022-08-26T06:35:00.530Z,18.27
2022-08-26T06:45:04.456Z,18.95
2022-08-26T06:55:10.767Z,17.80
2022-08-26T07:05:14.504Z,18.55
2022-08-26T07:15:19.287Z,18.63
2022-08-26T07:25:29.943Z,18.55
2022-08-26T07:35:34.171Z,18.05
2022-08-26T07:45:38.135Z,17.15
2022-08-26T07:55:43.053Z,16.83
2022-08-26T08:05:46.412Z,16.90
2022-08-26T08:15:51.253Z,16.95
2022-08-26T08:26:01.686Z,16.35
2022-08-26T08:36:07.667Z,14.82
2022-08-26T08:46:14.946Z,15.03
2022-08-26T08:56:23.693Z,15.77
2022-08-26T09:06:27.702Z,14.52
2022-08-26T09:16:40.648Z,13.93
2022-08-26T09:26:47.609Z,14.30
2022-08-26T09:36:53.548Z,13.82
2022-08-26T09:46:59.883Z,15.13
2022-08-26T09:57:28.951Z,12.43
2022-08-26T10:07:42.221Z,12.38
2022-08-26T10:17:50.672Z,11.85
2022-08-26T10:28:04.806Z,11.68
2022-08-26T10:38:15.077Z,12.57
2022-08-26T10:48:25.151Z,10.38
2022-08-26T10:58:39.491Z,9.65
2022-08-26T11:08:47.178Z,8.57
2022-08-26T11:18:54.604Z,7.20
2022-08-26T11:28:58.256Z,7.20
2022-08-26T11:39:03.163Z,6.75
2022-08-26T11:49:08.305Z,6.68
2022-08-26T11:59:16.725Z,5.80
2022-08-26T12:09:23.018Z,5.85
2022-08-26T12:19:29.413Z,5.45
2022-08-26T12:29:36.391Z,5.10
2022-08-26T12:39:45.567Z,4.82
2022-08-26T12:49:48.296Z,4.03
2022-08-26T12:59:52.423Z,4.63
2022-08-26T13:09:57.003Z,3.42
2022-08-26T13:20:04.146Z,3.17
2022-08-26T13:30:07.943Z,3.33
2022-08-26T13:40:13.071Z,2.78
2022-08-26T13:50:15.899Z,2.50
2022-08-26T14:00:21.015Z,2.55
2022-08-26T14:10:24.207Z,2.55
2022-08-26T14:20:30.791Z,2.40
2022-08-26T14:30:33.711Z,2.15
2022-08-26T14:40:40.098Z,2.42
2022-08-26T14:50:42.813Z,2.00
2022-08-26T15:00:47.050Z,2.30
2022-08-26T15:10:50.701Z,2.30
2022-08-26T15:20:54.755Z,2.00
2022-08-26T15:30:57.571Z,1.45
2022-08-26T15:41:03.395Z,1.50
2022-08-26T15:51:08.317Z,1.88
2022-08-26T16:01:12.398Z,1.75
2022-08-26T16:11:15.802Z,1.65
2022-08-26T16:21:22.437Z,1.90
2022-08-26T16:31:25.285Z,2.05
2022-08-26T16:41:31.152Z,2.38
2022-08-26T16:51:37.682Z,2.40
2022-08-26T17:01:42.516Z,2.28
2022-08-26T17:11:45.615Z,2.58
2022-08-26T17:21:49.891Z,2.63
2022-08-26T17:31:52.617Z,2.42
2022-08-26T17:41:56.634Z,2.22
2022-08-26T17:51:59.815Z,2.05
2022-08-26T18:02:04.001Z,2.95
2022-08-26T18:12:07.369Z,3.47
2022-08-26T18:22:11.451Z,2.05
2022-08-26T18:32:18.706Z,2.33
2022-08-26T18:42:23.536Z,2.50
2022-08-26T18:52:26.365Z,2.22
2022-08-26T19:02:30.826Z,2.28
2022-08-26T19:12:33.599Z,1.88
2022-08-26T19:22:37.804Z,2.00
2022-08-26T19:32:40.539Z,1.83
2022-08-26T19:42:44.767Z,1.70
2022-08-26T19:52:47.939Z,2.30
2022-08-26T20:02:52.994Z,2.13
2022-08-26T20:12:55.916Z,1.60
2022-08-26T20:23:00.272Z,1.25
2022-08-26T20:33:03.025Z,1.25
2022-08-26T20:43:07.183Z,1.67
2022-08-26T20:53:11.129Z,1.10
2022-08-26T21:03:15.287Z,1.20
2022-08-26T21:13:18.464Z,1.30
2022-08-26T21:23:26.349Z,1.35
2022-08-26T21:33:31.500Z,1.08
2022-08-26T21:43:36.756Z,1.27
2022-08-26T21:53:40.395Z,0.95
2022-08-26T22:03:46.822Z,1.10
2022-08-26T22:13:50.764Z,1.40
2022-08-26T22:23:57.986Z,1.05
2022-08-26T22:34:01.321Z,0.90
2022-08-26T22:44:05.792Z,1.30
2022-08-26T22:54:08.512Z,1.38
2022-08-26T23:04:13.013Z,0.90
2022-08-26T23:14:16.332Z,0.90
2022-08-26T23:24:20.528Z,1.20
2022-08-26T23:34:40.717Z,1.20
2022-08-26T23:44:45.559Z,0.93
2022-08-26T23:54:48.725Z,1.00
